sensor_id;sensor_type;location;lat;lon;timestamp;P1;durP1;ratioP1;P2;durP2;ratioP2
49015;SDS011;34830;44.064;12.566;2023-01-16T00:00:23;129.00;;;66.65;;
49015;SDS011;34830;44.064;12.566;2023-01-16T00:02:49;145.52;;;69.70;;
49015;SDS011;34830;44.064;12.566;2023-01-16T00:05:15;145.45;;;70.68;;
49015;SDS011;34830;44.064;12.566;2023-01-16T00:07:41;152.40;;;70.35;;
49015;SDS011;34830;44.064;12.566;2023-01-16T00:10:07;148.77;;;69.55;;
49015;SDS011;34830;44.064;12.566;2023-01-16T00:12:34;137.05;;;66.32;;
49015;SDS011;34830;44.064;12.566;2023-01-16T00:15:00;140.00;;;67.75;;
49015;SDS011;34830;44.064;12.566;2023-01-16T00:17:26;138.18;;;66.40;;
49015;SDS011;34830;44.064;12.566;2023-01-16T00:19:52;141.05;;;68.88;;
49015;SDS011;34830;44.064;12.566;2023-01-16T00:22:18;152.20;;;71.50;;
49015;SDS011;34830;44.064;12.566;2023-01-16T00:24:44;138.07;;;68.43;;
49015;SDS011;34830;44.064;12.566;2023-01-16T00:27:10;151.55;;;71.88;;
49015;SDS011;34830;44.064;12.566;2023-01-16T00:29:36;138.57;;;68.90;;
49015;SDS011;34830;44.064;12.566;2023-01-16T00:32:02;142.25;;;68.80;;
49015;SDS011;34830;44.064;12.566;2023-01-16T00:34:28;144.93;;;69.18;;
49015;SDS011;34830;44.064;12.566;2023-01-16T00:36:54;130.93;;;64.50;;
49015;SDS011;34830;44.064;12.566;2023-01-16T00:39:20;131.90;;;64.05;;
49015;SDS011;34830;44.064;12.566;2023-01-16T00:41:46;136.48;;;69.88;;
49015;SDS011;34830;44.064;12.566;2023-01-16T00:44:13;130.65;;;66.25;;
49015;SDS011;34830;44.064;12.566;2023-01-16T00:46:39;136.93;;;67.10;;
49015;SDS011;34830;44.064;12.566;2023-01-16T00:49:05;130.93;;;66.03;;
49015;SDS011;34830;44.064;12.566;2023-01-16T00:51:31;125.22;;;63.88;;
49015;SDS011;34830;44.064;12.566;2023-01-16T00:53:57;144.02;;;68.40;;
49015;SDS011;34830;44.064;12.566;2023-01-16T00:56:23;134.80;;;63.08;;
49015;SDS011;34830;44.064;12.566;2023-01-16T00:58:49;128.00;;;62.88;;
49015;SDS011;34830;44.064;12.566;2023-01-16T01:01:15;142.90;;;66.72;;
49015;SDS011;34830;44.064;12.566;2023-01-16T01:03:41;132.10;;;64.10;;
49015;SDS011;34830;44.064;12.566;2023-01-16T01:06:08;124.97;;;63.65;;
49015;SDS011;34830;44.064;12.566;2023-01-16T01:08:36;121.35;;;62.33;;
49015;SDS011;34830;44.064;12.566;2023-01-16T01:11:06;114.50;;;59.63;;
49015;SDS011;34830;44.064;12.566;2023-01-16T01:13:36;121.70;;;62.08;;
49015;SDS011;34830;44.064;12.566;2023-01-16T01:16:03;112.30;;;59.33;;
49015;SDS011;34830;44.064;12.566;2023-01-16T01:18:30;135.52;;;63.00;;
49015;SDS011;34830;44.064;12.566;2023-01-16T01:20:56;117.57;;;60.10;;
49015;SDS011;34830;44.064;12.566;2023-01-16T01:23:22;116.68;;;60.78;;
49015;SDS011;34830;44.064;12.566;2023-01-16T01:25:48;126.47;;;59.55;;
49015;SDS011;34830;44.064;12.566;2023-01-16T01:28:14;121.60;;;58.28;;
49015;SDS011;34830;44.064;12.566;2023-01-16T01:30:41;121.30;;;58.33;;
49015;SDS011;34830;44.064;12.566;2023-01-16T01:33:07;116.78;;;57.47;;
49015;SDS011;34830;44.064;12.566;2023-01-16T01:35:35;106.45;;;53.17;;
49015;SDS011;34830;44.064;12.566;2023-01-16T01:38:01;104.25;;;52.42;;
49015;SDS011;34830;44.064;12.566;2023-01-16T01:40:28;110.20;;;53.00;;
49015;SDS011;34830;44.064;12.566;2023-01-16T01:42:54;100.57;;;52.33;;
49015;SDS011;34830;44.064;12.566;2023-01-16T01:45:21;109.95;;;53.53;;
49015;SDS011;34830;44.064;12.566;2023-01-16T01:47:51;102.68;;;51.13;;
49015;SDS011;34830;44.064;12.566;2023-01-16T01:50:40;102.72;;;51.38;;
49015;SDS011;34830;44.064;12.566;2023-01-16T01:53:10;95.97;;;47.55;;
49015;SDS011;34830;44.064;12.566;2023-01-16T01:55:39;100.20;;;48.80;;
49015;SDS011;34830;44.064;12.566;2023-01-16T01:58:07;94.05;;;46.90;;
49015;SDS011;34830;44.064;12.566;2023-01-16T02:00:34;95.35;;;47.10;;
49015;SDS011;34830;44.064;12.566;2023-01-16T02:03:03;85.85;;;45.20;;
49015;SDS011;34830;44.064;12.566;2023-01-16T02:05:39;85.20;;;46.33;;
49015;SDS011;34830;44.064;12.566;2023-01-16T02:08:18;87.65;;;45.22;;
49015;SDS011;34830;44.064;12.566;2023-01-16T02:10:52;73.72;;;43.70;;
49015;SDS011;34830;44.064;12.566;2023-01-16T02:13:21;83.20;;;45.08;;
49015;SDS011;34830;44.064;12.566;2023-01-16T02:15:47;84.90;;;44.78;;
49015;SDS011;34830;44.064;12.566;2023-01-16T02:18:32;81.40;;;44.03;;
49015;SDS011;34830;44.064;12.566;2023-01-16T02:29:57;76.13;;;41.50;;
49015;SDS011;34830;44.064;12.566;2023-01-16T02:35:27;81.72;;;44.13;;
49015;SDS011;34830;44.064;12.566;2023-01-16T02:38:10;76.25;;;44.55;;
49015;SDS011;34830;44.064;12.566;2023-01-16T02:40:55;89.20;;;46.60;;
49015;SDS011;34830;44.064;12.566;2023-01-16T02:51:30;99.03;;;53.08;;
49015;SDS011;34830;44.064;12.566;2023-01-16T02:54:03;98.80;;;50.60;;
49015;SDS011;34830;44.064;12.566;2023-01-16T02:56:43;96.93;;;52.75;;
49015;SDS011;34830;44.064;12.566;2023-01-16T02:59:12;105.85;;;56.70;;
49015;SDS011;34830;44.064;12.566;2023-01-16T03:01:39;99.28;;;51.92;;
49015;SDS011;34830;44.064;12.566;2023-01-16T03:07:54;114.00;;;58.78;;
49015;SDS011;34830;44.064;12.566;2023-01-16T03:24:30;98.85;;;51.45;;
49015;SDS011;34830;44.064;12.566;2023-01-16T03:27:23;103.10;;;54.47;;
49015;SDS011;34830;44.064;12.566;2023-01-16T03:29:58;97.75;;;52.00;;
49015;SDS011;34830;44.064;12.566;2023-01-16T03:32:34;97.38;;;50.03;;
49015;SDS011;34830;44.064;12.566;2023-01-16T03:35:08;97.13;;;53.13;;
49015;SDS011;34830;44.064;12.566;2023-01-16T03:37:41;90.40;;;49.72;;
49015;SDS011;34830;44.064;12.566;2023-01-16T03:40:12;86.97;;;46.78;;
49015;SDS011;34830;44.064;12.566;2023-01-16T03:43:00;80.75;;;46.75;;
49015;SDS011;34830;44.064;12.566;2023-01-16T03:48:13;80.18;;;44.65;;
49015;SDS011;34830;44.064;12.566;2023-01-16T03:50:46;73.10;;;43.85;;
49015;SDS011;34830;44.064;12.566;2023-01-16T03:55:48;70.93;;;42.03;;
49015;SDS011;34830;44.064;12.566;2023-01-16T03:58:19;71.43;;;41.33;;
49015;SDS011;34830;44.064;12.566;2023-01-16T04:01:04;66.80;;;40.40;;
49015;SDS011;34830;44.064;12.566;2023-01-16T04:06:31;66.68;;;38.88;;
49015;SDS011;34830;44.064;12.566;2023-01-16T04:08:59;66.15;;;39.80;;
49015;SDS011;34830;44.064;12.566;2023-01-16T04:11:29;58.10;;;36.60;;
49015;SDS011;34830;44.064;12.566;2023-01-16T04:13:56;57.17;;;35.10;;
49015;SDS011;34830;44.064;12.566;2023-01-16T04:16:23;59.47;;;35.88;;
49015;SDS011;34830;44.064;12.566;2023-01-16T04:18:49;63.22;;;37.08;;
49015;SDS011;34830;44.064;12.566;2023-01-16T04:21:18;57.53;;;35.60;;
49015;SDS011;34830;44.064;12.566;2023-01-16T04:23:44;54.40;;;33.10;;
49015;SDS011;34830;44.064;12.566;2023-01-16T04:26:10;51.85;;;32.83;;
49015;SDS011;34830;44.064;12.566;2023-01-16T04:28:36;55.78;;;34.05;;
49015;SDS011;34830;44.064;12.566;2023-01-16T04:31:02;49.85;;;32.78;;
49015;SDS011;34830;44.064;12.566;2023-01-16T04:33:28;47.40;;;31.27;;
49015;SDS011;34830;44.064;12.566;2023-01-16T04:35:54;51.42;;;33.13;;
49015;SDS011;34830;44.064;12.566;2023-01-16T04:38:20;52.22;;;33.08;;
49015;SDS011;34830;44.064;12.566;2023-01-16T04:40:46;48.15;;;32.28;;
49015;SDS011;34830;44.064;12.566;2023-01-16T04:43:12;48.05;;;31.50;;
49015;SDS011;34830;44.064;12.566;2023-01-16T04:45:38;47.90;;;30.38;;
49015;SDS011;34830;44.064;12.566;2023-01-16T04:48:06;45.50;;;31.75;;
49015;SDS011;34830;44.064;12.566;2023-01-16T04:50:32;46.08;;;30.33;;
49015;SDS011;34830;44.064;12.566;2023-01-16T04:52:58;48.38;;;29.60;;
49015;SDS011;34830;44.064;12.566;2023-01-16T04:55:24;41.17;;;28.25;;
49015;SDS011;34830;44.064;12.566;2023-01-16T04:57:50;43.95;;;29.63;;
49015;SDS011;34830;44.064;12.566;2023-01-16T05:00:16;45.65;;;29.67;;
49015;SDS011;34830;44.064;12.566;2023-01-16T05:02:43;44.83;;;30.02;;
49015;SDS011;34830;44.064;12.566;2023-01-16T05:05:09;43.25;;;28.92;;
49015;SDS011;34830;44.064;12.566;2023-01-16T05:07:35;46.97;;;30.33;;
49015;SDS011;34830;44.064;12.566;2023-01-16T05:10:01;43.00;;;29.48;;
49015;SDS011;34830;44.064;12.566;2023-01-16T05:12:27;44.33;;;29.67;;
49015;SDS011;34830;44.064;12.566;2023-01-16T05:14:53;43.47;;;27.40;;
49015;SDS011;34830;44.064;12.566;2023-01-16T05:17:19;41.83;;;28.52;;
49015;SDS011;34830;44.064;12.566;2023-01-16T05:19:49;48.58;;;30.85;;
49015;SDS011;34830;44.064;12.566;2023-01-16T05:22:16;48.25;;;30.55;;
49015;SDS011;34830;44.064;12.566;2023-01-16T05:24:42;46.65;;;29.10;;
49015;SDS011;34830;44.064;12.566;2023-01-16T05:27:09;46.90;;;30.80;;
49015;SDS011;34830;44.064;12.566;2023-01-16T05:29:35;46.17;;;30.90;;
49015;SDS011;34830;44.064;12.566;2023-01-16T05:32:01;45.53;;;30.65;;
49015;SDS011;34830;44.064;12.566;2023-01-16T05:34:27;45.33;;;30.27;;
49015;SDS011;34830;44.064;12.566;2023-01-16T05:36:53;51.40;;;30.83;;
49015;SDS011;34830;44.064;12.566;2023-01-16T05:39:19;51.13;;;32.47;;
49015;SDS011;34830;44.064;12.566;2023-01-16T05:41:45;47.40;;;31.25;;
49015;SDS011;34830;44.064;12.566;2023-01-16T05:44:11;49.58;;;31.88;;
49015;SDS011;34830;44.064;12.566;2023-01-16T05:46:37;46.22;;;30.27;;
49015;SDS011;34830;44.064;12.566;2023-01-16T05:49:03;48.80;;;30.65;;
49015;SDS011;34830;44.064;12.566;2023-01-16T05:51:29;53.75;;;35.17;;
49015;SDS011;34830;44.064;12.566;2023-01-16T05:53:55;50.55;;;29.15;;
49015;SDS011;34830;44.064;12.566;2023-01-16T05:56:21;49.85;;;30.08;;
49015;SDS011;34830;44.064;12.566;2023-01-16T05:58:47;47.75;;;28.92;;
49015;SDS011;34830;44.064;12.566;2023-01-16T06:01:13;46.33;;;28.20;;
49015;SDS011;34830;44.064;12.566;2023-01-16T06:03:39;44.22;;;26.77;;
49015;SDS011;34830;44.064;12.566;2023-01-16T06:06:05;50.08;;;30.73;;
49015;SDS011;34830;44.064;12.566;2023-01-16T06:08:32;48.13;;;28.20;;
49015;SDS011;34830;44.064;12.566;2023-01-16T06:10:58;45.97;;;28.50;;
49015;SDS011;34830;44.064;12.566;2023-01-16T06:13:24;50.42;;;28.92;;
49015;SDS011;34830;44.064;12.566;2023-01-16T06:15:50;48.03;;;28.95;;
49015;SDS011;34830;44.064;12.566;2023-01-16T06:18:16;48.50;;;28.17;;
49015;SDS011;34830;44.064;12.566;2023-01-16T06:20:42;47.05;;;28.27;;
49015;SDS011;34830;44.064;12.566;2023-01-16T06:23:08;49.03;;;28.90;;
49015;SDS011;34830;44.064;12.566;2023-01-16T06:25:35;49.78;;;28.75;;
49015;SDS011;34830;44.064;12.566;2023-01-16T06:28:01;50.33;;;29.83;;
49015;SDS011;34830;44.064;12.566;2023-01-16T06:30:27;45.45;;;27.52;;
49015;SDS011;34830;44.064;12.566;2023-01-16T06:32:53;47.85;;;27.45;;
49015;SDS011;34830;44.064;12.566;2023-01-16T06:35:19;48.50;;;29.50;;
49015;SDS011;34830;44.064;12.566;2023-01-16T06:37:45;47.90;;;27.70;;
49015;SDS011;34830;44.064;12.566;2023-01-16T06:40:11;47.60;;;28.70;;
49015;SDS011;34830;44.064;12.566;2023-01-16T06:42:37;51.97;;;30.08;;
49015;SDS011;34830;44.064;12.566;2023-01-16T06:45:04;52.67;;;31.20;;
49015;SDS011;34830;44.064;12.566;2023-01-16T06:47:30;54.95;;;31.88;;
49015;SDS011;34830;44.064;12.566;2023-01-16T06:49:57;51.40;;;30.10;;
49015;SDS011;34830;44.064;12.566;2023-01-16T06:52:23;49.60;;;29.17;;
49015;SDS011;34830;44.064;12.566;2023-01-16T06:54:49;53.90;;;29.02;;
49015;SDS011;34830;44.064;12.566;2023-01-16T06:57:15;51.90;;;30.60;;
49015;SDS011;34830;44.064;12.566;2023-01-16T06:59:41;57.08;;;30.70;;
49015;SDS011;34830;44.064;12.566;2023-01-16T07:02:10;78.05;;;31.23;;
49015;SDS011;34830;44.064;12.566;2023-01-16T07:04:36;52.35;;;30.88;;
49015;SDS011;34830;44.064;12.566;2023-01-16T07:07:02;51.22;;;29.45;;
49015;SDS011;34830;44.064;12.566;2023-01-16T07:09:28;51.65;;;29.65;;
49015;SDS011;34830;44.064;12.566;2023-01-16T07:11:54;52.75;;;30.58;;
49015;SDS011;34830;44.064;12.566;2023-01-16T07:14:20;51.13;;;31.00;;
49015;SDS011;34830;44.064;12.566;2023-01-16T07:17:05;49.20;;;28.75;;
49015;SDS011;34830;44.064;12.566;2023-01-16T07:19:50;46.67;;;28.13;;
49015;SDS011;34830;44.064;12.566;2023-01-16T07:22:34;47.05;;;27.92;;
49015;SDS011;34830;44.064;12.566;2023-01-16T07:25:01;51.05;;;29.40;;
49015;SDS011;34830;44.064;12.566;2023-01-16T07:27:28;46.53;;;28.48;;
49015;SDS011;34830;44.064;12.566;2023-01-16T07:29:54;52.35;;;28.88;;
49015;SDS011;34830;44.064;12.566;2023-01-16T07:32:21;47.80;;;28.05;;
49015;SDS011;34830;44.064;12.566;2023-01-16T07:34:47;50.65;;;27.58;;
49015;SDS011;34830;44.064;12.566;2023-01-16T07:37:13;50.47;;;28.95;;
49015;SDS011;34830;44.064;12.566;2023-01-16T07:39:39;50.70;;;30.52;;
49015;SDS011;34830;44.064;12.566;2023-01-16T07:42:06;51.72;;;30.45;;
49015;SDS011;34830;44.064;12.566;2023-01-16T07:44:34;48.75;;;28.17;;
49015;SDS011;34830;44.064;12.566;2023-01-16T07:47:00;48.63;;;27.45;;
49015;SDS011;34830;44.064;12.566;2023-01-16T07:49:26;45.42;;;26.48;;
49015;SDS011;34830;44.064;12.566;2023-01-16T07:51:52;43.85;;;27.05;;
49015;SDS011;34830;44.064;12.566;2023-01-16T07:54:18;46.47;;;28.73;;
49015;SDS011;34830;44.064;12.566;2023-01-16T07:56:44;46.25;;;28.73;;
49015;SDS011;34830;44.064;12.566;2023-01-16T07:59:10;50.58;;;30.60;;
49015;SDS011;34830;44.064;12.566;2023-01-16T08:01:36;47.25;;;29.63;;
49015;SDS011;34830;44.064;12.566;2023-01-16T08:04:05;47.85;;;29.27;;
49015;SDS011;34830;44.064;12.566;2023-01-16T08:06:31;47.03;;;28.60;;
49015;SDS011;34830;44.064;12.566;2023-01-16T08:08:57;47.05;;;28.77;;
49015;SDS011;34830;44.064;12.566;2023-01-16T08:11:23;50.40;;;28.02;;
49015;SDS011;34830;44.064;12.566;2023-01-16T08:14:02;49.65;;;29.17;;
49015;SDS011;34830;44.064;12.566;2023-01-16T08:16:28;54.50;;;29.30;;
49015;SDS011;34830;44.064;12.566;2023-01-16T08:18:54;41.17;;;26.67;;
49015;SDS011;34830;44.064;12.566;2023-01-16T08:21:20;44.05;;;26.63;;
49015;SDS011;34830;44.064;12.566;2023-01-16T08:23:46;41.50;;;25.70;;
49015;SDS011;34830;44.064;12.566;2023-01-16T08:26:12;40.60;;;24.55;;
49015;SDS011;34830;44.064;12.566;2023-01-16T08:28:39;35.67;;;22.92;;
49015;SDS011;34830;44.064;12.566;2023-01-16T08:31:06;28.45;;;19.83;;
49015;SDS011;34830;44.064;12.566;2023-01-16T08:33:35;27.90;;;18.98;;
49015;SDS011;34830;44.064;12.566;2023-01-16T08:36:02;28.98;;;19.98;;
49015;SDS011;34830;44.064;12.566;2023-01-16T08:38:29;32.60;;;22.35;;
49015;SDS011;34830;44.064;12.566;2023-01-16T08:40:55;31.75;;;19.55;;
49015;SDS011;34830;44.064;12.566;2023-01-16T08:43:21;28.83;;;18.63;;
49015;SDS011;34830;44.064;12.566;2023-01-16T08:46:10;28.08;;;17.85;;
49015;SDS011;34830;44.064;12.566;2023-01-16T08:49:01;27.23;;;18.23;;
49015;SDS011;34830;44.064;12.566;2023-01-16T08:51:47;29.33;;;17.60;;
49015;SDS011;34830;44.064;12.566;2023-01-16T08:54:13;31.35;;;16.92;;
49015;SDS011;34830;44.064;12.566;2023-01-16T08:56:39;28.15;;;17.25;;
49015;SDS011;34830;44.064;12.566;2023-01-16T08:59:08;26.80;;;17.75;;
49015;SDS011;34830;44.064;12.566;2023-01-16T09:01:38;28.58;;;18.42;;
49015;SDS011;34830;44.064;12.566;2023-01-16T09:04:05;27.00;;;17.38;;
49015;SDS011;34830;44.064;12.566;2023-01-16T09:06:31;27.77;;;17.55;;
49015;SDS011;34830;44.064;12.566;2023-01-16T09:08:57;26.65;;;17.02;;
49015;SDS011;34830;44.064;12.566;2023-01-16T09:11:23;32.20;;;17.42;;
49015;SDS011;34830;44.064;12.566;2023-01-16T09:14:08;25.98;;;16.20;;
49015;SDS011;34830;44.064;12.566;2023-01-16T09:16:34;28.55;;;16.08;;
49015;SDS011;34830;44.064;12.566;2023-01-16T09:19:00;36.35;;;17.75;;
49015;SDS011;34830;44.064;12.566;2023-01-16T09:21:26;24.50;;;16.60;;
49015;SDS011;34830;44.064;12.566;2023-01-16T09:23:52;29.70;;;17.90;;
49015;SDS011;34830;44.064;12.566;2023-01-16T09:28:57;32.67;;;19.25;;
49015;SDS011;34830;44.064;12.566;2023-01-16T09:31:23;28.45;;;17.38;;
49015;SDS011;34830;44.064;12.566;2023-01-16T09:33:50;26.75;;;17.33;;
49015;SDS011;34830;44.064;12.566;2023-01-16T09:36:17;33.70;;;18.38;;
49015;SDS011;34830;44.064;12.566;2023-01-16T09:38:43;28.75;;;17.52;;
49015;SDS011;34830;44.064;12.566;2023-01-16T09:41:12;44.63;;;19.13;;
49015;SDS011;34830;44.064;12.566;2023-01-16T09:44:01;31.40;;;17.83;;
49015;SDS011;34830;44.064;12.566;2023-01-16T09:46:28;26.70;;;17.63;;
49015;SDS011;34830;44.064;12.566;2023-01-16T09:49:04;33.33;;;18.35;;
49015;SDS011;34830;44.064;12.566;2023-01-16T09:51:45;23.85;;;16.10;;
49015;SDS011;34830;44.064;12.566;2023-01-16T09:54:56;30.25;;;18.25;;
49015;SDS011;34830;44.064;12.566;2023-01-16T09:57:41;31.10;;;18.40;;
49015;SDS011;34830;44.064;12.566;2023-01-16T10:00:29;35.00;;;18.75;;
49015;SDS011;34830;44.064;12.566;2023-01-16T10:02:56;29.40;;;18.15;;
49015;SDS011;34830;44.064;12.566;2023-01-16T10:05:24;35.67;;;19.13;;
49015;SDS011;34830;44.064;12.566;2023-01-16T10:07:52;32.22;;;18.63;;
49015;SDS011;34830;44.064;12.566;2023-01-16T10:10:44;29.58;;;18.98;;
49015;SDS011;34830;44.064;12.566;2023-01-16T10:16:13;39.40;;;21.05;;
49015;SDS011;34830;44.064;12.566;2023-01-16T10:30:01;31.20;;;19.48;;
49015;SDS011;34830;44.064;12.566;2023-01-16T10:35:24;34.78;;;19.88;;
49015;SDS011;34830;44.064;12.566;2023-01-16T10:37:52;33.85;;;19.40;;
49015;SDS011;34830;44.064;12.566;2023-01-16T10:40:21;35.28;;;20.60;;
49015;SDS011;34830;44.064;12.566;2023-01-16T10:42:59;35.25;;;20.33;;
49015;SDS011;34830;44.064;12.566;2023-01-16T10:45:46;36.05;;;19.15;;
49015;SDS011;34830;44.064;12.566;2023-01-16T10:48:32;38.20;;;21.15;;
49015;SDS011;34830;44.064;12.566;2023-01-16T10:51:17;38.38;;;20.00;;
49015;SDS011;34830;44.064;12.566;2023-01-16T10:53:43;38.80;;;19.95;;
49015;SDS011;34830;44.064;12.566;2023-01-16T10:56:10;37.28;;;19.67;;
49015;SDS011;34830;44.064;12.566;2023-01-16T10:58:37;56.13;;;21.30;;
49015;SDS011;34830;44.064;12.566;2023-01-16T11:01:13;57.30;;;21.08;;
49015;SDS011;34830;44.064;12.566;2023-01-16T11:03:45;37.75;;;21.42;;
49015;SDS011;34830;44.064;12.566;2023-01-16T11:06:14;34.75;;;20.55;;
49015;SDS011;34830;44.064;12.566;2023-01-16T11:08:41;36.47;;;21.13;;
49015;SDS011;34830;44.064;12.566;2023-01-16T11:11:11;39.67;;;22.65;;
49015;SDS011;34830;44.064;12.566;2023-01-16T11:13:58;38.08;;;22.98;;
49015;SDS011;34830;44.064;12.566;2023-01-16T11:16:43;41.38;;;21.92;;
49015;SDS011;34830;44.064;12.566;2023-01-16T11:19:28;36.03;;;20.50;;
49015;SDS011;34830;44.064;12.566;2023-01-16T11:21:57;43.78;;;22.48;;
49015;SDS011;34830;44.064;12.566;2023-01-16T11:24:31;37.17;;;21.52;;
49015;SDS011;34830;44.064;12.566;2023-01-16T11:26:59;40.13;;;22.52;;
49015;SDS011;34830;44.064;12.566;2023-01-16T11:29:29;37.25;;;20.75;;
49015;SDS011;34830;44.064;12.566;2023-01-16T11:32:06;38.08;;;20.45;;
49015;SDS011;34830;44.064;12.566;2023-01-16T11:34:35;33.85;;;21.13;;
49015;SDS011;34830;44.064;12.566;2023-01-16T11:37:03;41.92;;;21.80;;
49015;SDS011;34830;44.064;12.566;2023-01-16T11:39:32;35.95;;;21.77;;
49015;SDS011;34830;44.064;12.566;2023-01-16T11:41:59;39.50;;;20.58;;
49015;SDS011;34830;44.064;12.566;2023-01-16T11:44:58;34.75;;;20.63;;
49015;SDS011;34830;44.064;12.566;2023-01-16T11:47:50;38.17;;;20.65;;
49015;SDS011;34830;44.064;12.566;2023-01-16T11:50:21;35.42;;;20.20;;
49015;SDS011;34830;44.064;12.566;2023-01-16T11:52:53;40.67;;;21.58;;
49015;SDS011;34830;44.064;12.566;2023-01-16T11:55:19;37.72;;;20.67;;
49015;SDS011;34830;44.064;12.566;2023-01-16T11:57:55;40.38;;;22.42;;
49015;SDS011;34830;44.064;12.566;2023-01-16T12:06:35;36.50;;;20.83;;
49015;SDS011;34830;44.064;12.566;2023-01-16T12:12:10;35.30;;;20.08;;
49015;SDS011;34830;44.064;12.566;2023-01-16T12:15:04;36.47;;;18.95;;
49015;SDS011;34830;44.064;12.566;2023-01-16T12:29:09;34.47;;;20.33;;
49015;SDS011;34830;44.064;12.566;2023-01-16T12:31:55;36.05;;;20.20;;
49015;SDS011;34830;44.064;12.566;2023-01-16T12:34:29;32.63;;;19.02;;
49015;SDS011;34830;44.064;12.566;2023-01-16T12:37:17;40.35;;;21.52;;
49015;SDS011;34830;44.064;12.566;2023-01-16T12:43:25;34.22;;;20.13;;
49015;SDS011;34830;44.064;12.566;2023-01-16T12:46:02;37.78;;;18.98;;
49015;SDS011;34830;44.064;12.566;2023-01-16T12:56:30;34.55;;;19.55;;
49015;SDS011;34830;44.064;12.566;2023-01-16T12:59:07;37.65;;;20.80;;
49015;SDS011;34830;44.064;12.566;2023-01-16T13:01:39;36.92;;;20.67;;
49015;SDS011;34830;44.064;12.566;2023-01-16T13:04:22;42.00;;;20.45;;
49015;SDS011;34830;44.064;12.566;2023-01-16T13:06:50;34.78;;;17.98;;
49015;SDS011;34830;44.064;12.566;2023-01-16T13:12:13;33.30;;;16.67;;
49015;SDS011;34830;44.064;12.566;2023-01-16T13:15:21;27.65;;;15.95;;
49015;SDS011;34830;44.064;12.566;2023-01-16T13:17:58;26.45;;;15.27;;
49015;SDS011;34830;44.064;12.566;2023-01-16T13:20:29;26.30;;;14.82;;
49015;SDS011;34830;44.064;12.566;2023-01-16T13:23:02;23.52;;;14.55;;
49015;SDS011;34830;44.064;12.566;2023-01-16T13:31:31;24.52;;;13.98;;
49015;SDS011;34830;44.064;12.566;2023-01-16T13:34:05;22.73;;;11.85;;
49015;SDS011;34830;44.064;12.566;2023-01-16T13:42:12;10.55;;;6.53;;
49015;SDS011;34830;44.064;12.566;2023-01-16T13:44:41;17.75;;;8.25;;
49015;SDS011;34830;44.064;12.566;2023-01-16T13:47:30;18.00;;;8.90;;
49015;SDS011;34830;44.064;12.566;2023-01-16T13:50:12;16.70;;;8.93;;
49015;SDS011;34830;44.064;12.566;2023-01-16T13:52:47;13.70;;;7.38;;
49015;SDS011;34830;44.064;12.566;2023-01-16T13:58:08;10.60;;;4.68;;
49015;SDS011;34830;44.064;12.566;2023-01-16T14:00:36;14.27;;;4.05;;
49015;SDS011;34830;44.064;12.566;2023-01-16T14:03:15;15.30;;;4.10;;
49015;SDS011;34830;44.064;12.566;2023-01-16T14:05:44;9.52;;;2.55;;
49015;SDS011;34830;44.064;12.566;2023-01-16T14:13:39;14.40;;;3.05;;
49015;SDS011;34830;44.064;12.566;2023-01-16T14:24:16;8.30;;;1.42;;
49015;SDS011;34830;44.064;12.566;2023-01-16T14:26:51;17.13;;;1.90;;
49015;SDS011;34830;44.064;12.566;2023-01-16T14:34:28;5.07;;;1.13;;
49015;SDS011;34830;44.064;12.566;2023-01-16T14:37:20;5.47;;;1.50;;
49015;SDS011;34830;44.064;12.566;2023-01-16T14:42:20;7.20;;;1.50;;
49015;SDS011;34830;44.064;12.566;2023-01-16T14:45:23;7.03;;;1.45;;
49015;SDS011;34830;44.064;12.566;2023-01-16T14:57:13;2.97;;;0.90;;
49015;SDS011;34830;44.064;12.566;2023-01-16T14:59:49;3.47;;;0.90;;
49015;SDS011;34830;44.064;12.566;2023-01-16T15:02:21;5.80;;;1.00;;
49015;SDS011;34830;44.064;12.566;2023-01-16T15:07:47;9.77;;;1.30;;
49015;SDS011;34830;44.064;12.566;2023-01-16T15:12:53;7.53;;;1.20;;
49015;SDS011;34830;44.064;12.566;2023-01-16T15:15:43;13.25;;;1.30;;
49015;SDS011;34830;44.064;12.566;2023-01-16T15:18:15;11.13;;;1.67;;
49015;SDS011;34830;44.064;12.566;2023-01-16T15:21:02;8.68;;;0.98;;
49015;SDS011;34830;44.064;12.566;2023-01-16T15:23:54;4.22;;;0.95;;
49015;SDS011;34830;44.064;12.566;2023-01-16T15:29:11;6.35;;;1.85;;
49015;SDS011;34830;44.064;12.566;2023-01-16T15:31:41;10.90;;;1.92;;
49015;SDS011;34830;44.064;12.566;2023-01-16T15:36:39;7.15;;;1.83;;
49015;SDS011;34830;44.064;12.566;2023-01-16T15:41:55;5.97;;;1.75;;
49015;SDS011;34830;44.064;12.566;2023-01-16T15:44:44;10.38;;;3.03;;
49015;SDS011;34830;44.064;12.566;2023-01-16T15:50:32;7.72;;;1.42;;
49015;SDS011;34830;44.064;12.566;2023-01-16T15:52:59;6.97;;;1.23;;
49015;SDS011;34830;44.064;12.566;2023-01-16T15:55:30;6.65;;;1.63;;
49015;SDS011;34830;44.064;12.566;2023-01-16T15:58:02;8.35;;;2.00;;
49015;SDS011;34830;44.064;12.566;2023-01-16T16:00:33;7.95;;;1.90;;
49015;SDS011;34830;44.064;12.566;2023-01-16T16:03:06;12.23;;;2.35;;
49015;SDS011;34830;44.064;12.566;2023-01-16T16:05:36;6.78;;;1.85;;
49015;SDS011;34830;44.064;12.566;2023-01-16T16:08:03;8.80;;;2.33;;
49015;SDS011;34830;44.064;12.566;2023-01-16T16:10:30;8.32;;;2.45;;
49015;SDS011;34830;44.064;12.566;2023-01-16T16:13:18;7.00;;;1.70;;
49015;SDS011;34830;44.064;12.566;2023-01-16T16:15:52;8.75;;;2.33;;
49015;SDS011;34830;44.064;12.566;2023-01-16T16:18:59;11.05;;;2.25;;
49015;SDS011;34830;44.064;12.566;2023-01-16T16:24:02;6.28;;;2.80;;
49015;SDS011;34830;44.064;12.566;2023-01-16T16:26:31;12.18;;;2.55;;
49015;SDS011;34830;44.064;12.566;2023-01-16T16:29:01;10.52;;;3.00;;
49015;SDS011;34830;44.064;12.566;2023-01-16T16:31:29;8.70;;;3.10;;
49015;SDS011;34830;44.064;12.566;2023-01-16T16:33:59;11.77;;;2.72;;
49015;SDS011;34830;44.064;12.566;2023-01-16T16:36:38;5.82;;;1.33;;
49015;SDS011;34830;44.064;12.566;2023-01-16T16:39:24;5.50;;;1.25;;
49015;SDS011;34830;44.064;12.566;2023-01-16T16:41:53;5.28;;;1.40;;
49015;SDS011;34830;44.064;12.566;2023-01-16T16:44:39;5.78;;;1.25;;
49015;SDS011;34830;44.064;12.566;2023-01-16T16:47:23;11.65;;;2.88;;
49015;SDS011;34830;44.064;12.566;2023-01-16T16:49:51;8.88;;;3.15;;
49015;SDS011;34830;44.064;12.566;2023-01-16T16:52:33;7.38;;;1.65;;
49015;SDS011;34830;44.064;12.566;2023-01-16T16:55:24;8.98;;;2.00;;
49015;SDS011;34830;44.064;12.566;2023-01-16T16:57:52;4.53;;;1.20;;
49015;SDS011;34830;44.064;12.566;2023-01-16T17:00:19;7.32;;;1.55;;
49015;SDS011;34830;44.064;12.566;2023-01-16T17:02:49;7.32;;;1.73;;
49015;SDS011;34830;44.064;12.566;2023-01-16T17:05:16;7.68;;;1.52;;
49015;SDS011;34830;44.064;12.566;2023-01-16T17:07:45;8.50;;;1.45;;
49015;SDS011;34830;44.064;12.566;2023-01-16T17:10:15;10.88;;;2.83;;
49015;SDS011;34830;44.064;12.566;2023-01-16T17:12:42;6.22;;;1.27;;
49015;SDS011;34830;44.064;12.566;2023-01-16T17:15:08;6.20;;;1.60;;
49015;SDS011;34830;44.064;12.566;2023-01-16T17:17:41;4.93;;;1.20;;